首页
METAR-TAF:

METAR-TAF

机场 :

柯克沃爾機場

柯克沃尔, 苏格兰

纬度: 58-57N, 经度: 002-54W, 海拔: 21米

当前天气观测

该预报发布于37分钟前的06:20 UTC
风速8节,风向东转东北
温度 8°C
湿度 81%
气压 1013 hPa
能见度10公里或以上
少量云层高于1000英尺
多云层高于1400英尺

METAR: EGPA 130620Z 06008KT 9999 FEW010 BKN014 08/05 Q1013

时间: 07:57 (06:57 UTC)

预报

该预报发布于1小时和57分钟前的05:00 UTC
预报有效从13日的 06点(UTC)到 13日的 15点(UTC)
风速9节,风向东转东北
能见度10公里或以上
散云层高于1000英尺
多云层高于1500英尺
短暂存在
从 13日的 06点(UTC)到 13日的 14点(UTC)
能見度: 8000
多云层高于1000英尺

TAF: EGPA 130500Z 1306/1315 06009KT 9999 SCT010 BKN015 TEMPO 1306/1314 8000 BKN010

超过4000个机场的气象观测和天气预报(METAR&TAF报告)。

可查询的气象台以黄色和红色小点在地图上表示。

将鼠标移到小点上方,可查看气象台名称。

然后点击查看天气观测和预报。

如需切换地图:点击带黑十字的绿色按钮放大地图;点击带横线的绿色按钮缩小地图;或者点击绿色箭头查看邻近地区的地图。


METAR-TAF: